Accueil
METAR-TAF:

METAR-TAF

Aéroports :

Spangdahlem, Allemagne

Spangdahlem Air Base

latitude: 49-59N, longitude: 006-42E, altitude: 365 m

Observation

Le bulletin a été fait il y a 43 minutes, à 14:56 UTC
Vent 3 kt de est/nord-est
Température 25°C
Humidité 39%
Pression 1019 hPa
Visibilité 10 km ou plus
Ciel clair

METAR: ETAD 211456Z 06003KT 9999 CLR 25/10 A3008 RMK AO2A SLP166 T02490100 57017 $

Heure: 17:39 (15:39 UTC)

Prévision

Le bulletin a été fait il y a 4 heures et 27 minutes, à 11:12 UTC
Prévision valable du 21 à 11 UTC au 22 à 17 UTC
Vent 6 kt de direction variable
Visibilité 10 km ou plus
Quelques nuages à une hauteur de 6000 ft
Evoluant progressivement
du 22 à 11 UTC au 22 à 12 UTC
Vent 9 kt de sud/sud-ouest
Visibilité 10 km ou plus
Quelques nuages à une hauteur de 5000 ft

TAF: ETAD 211112Z 2111/2217 VRB06KT 9999 FEW060 QNH3000INS BECMG 2211/2212 21009KT 9999 FEW050 QNH2994INS TX27/2115Z TN04/2203Z

Observations et prévisions météorologiques de plus de 4000 aéroports (messages METAR et TAF).

Les stations disponibles sont représentées par des disques jaunes et rouges sur la carte.

Passer la souris dessus pour voir le nom de la station.

Cliquer dessus pour voir les observations et prévisions météorologiques.

Pour changer de carte: cliquez sur les boutons verts avec une croix noire pour zoomer, sur le bouton vert avec un tiret pour effectuer un zoom arrière, ou sur les flèches vertes pour les cartes adjacentes.


METAR-TAF: